Home   Weather   Germany   Leverkusen   Past weeks
Flag for Germany

Past Weather in Leverkusen, North Rhine-Westphalia, Germany — Yesterday and Last 2 Weeks

Currently: 64 °F. Clear. (Weather station: Koeln / Bonn, Germany). See more current weather

Past Weather in Leverkusen — Graph

°F

Leverkusen Temperature Yesterday

Maximum temperature yesterday: 84 °F (at 3:50 pm)
Minimum temperature yesterday: 50 °F (at 1:50 am)
Average temperature yesterday: 69 °F

High & Low Weather Summary for the Past Weeks

 TemperatureHumidityPressure
High84 °F (Jun 14, 3:50 pm)100% (Jun 4, 2:20 am)30.36 "Hg (Jun 4, 2:20 am)
Low45 °F (May 31, 5:20 am)23% (Jun 2, 5:50 pm)29.95 "Hg (Jun 1, 5:50 pm)
Average66 °F68%30.14 "Hg
* Reported May 30 11:20 pm — Jun 14 11:20 pm, Leverkusen. Weather by CustomWeather, © 2021

Note: Actual official high and low records may vary slightly from our data, if they occured in-between our weather recording intervals... More about our weather records

Leverkusen Weather History for the Previous 24 Hours

Scroll right to see more
 ConditionsComfort  
Time TempWeatherWind HumidityBarometerVisibility
11:20 pm
Mon, Jun 14
66 °FClear.2 mph64%30.07 "Hg10 mi
10:50 pm66 °FClear.2 mph68%30.07 "Hg10 mi
10:20 pm68 °FClear.2 mph60%30.07 "Hg10 mi
9:50 pm70 °FClear.1 mph60%30.07 "Hg10 mi
9:20 pm73 °FSunny.2 mph57%30.07 "Hg10 mi
8:50 pm79 °FSunny.3 mph45%30.07 "Hg10 mi
8:20 pm79 °FSunny.5 mph42%30.07 "Hg10 mi
7:50 pm81 °FSunny.6 mph37%30.07 "Hg10 mi
7:20 pm82 °FPassing clouds.5 mph32%30.07 "HgN/A
6:50 pm82 °FPassing clouds.8 mph32%30.07 "HgN/A
6:20 pm82 °FPassing clouds.6 mph32%30.07 "HgN/A
5:50 pm84 °FSunny.3 mph31%30.07 "Hg10 mi
5:20 pm84 °FPassing clouds.5 mph31%30.09 "HgN/A
4:50 pm84 °FPassing clouds.7 mph29%30.09 "HgN/A
4:20 pm82 °FSunny.3 mph30%30.09 "Hg10 mi
3:50 pm84 °FPassing clouds.6 mph31%30.09 "HgN/A
3:20 pm82 °FSunny.3 mph30%30.12 "Hg10 mi
2:50 pm81 °FPassing clouds.6 mph34%30.12 "HgN/A
2:20 pm81 °FPassing clouds.6 mph32%30.12 "HgN/A
1:50 pm79 °FPassing clouds.6 mph37%30.12 "HgN/A
1:20 pm79 °FPassing clouds.7 mph37%30.15 "HgN/A
12:50 pm77 °FPassing clouds.7 mph39%30.15 "HgN/A
12:20 pm77 °FPassing clouds.8 mph42%30.15 "HgN/A
11:50 am75 °FSunny.12 mph41%30.15 "Hg10 mi
11:20 am73 °FPassing clouds.8 mph44%30.18 "HgN/A
10:50 am72 °FPassing clouds.8 mph47%30.18 "HgN/A
10:20 am72 °FPassing clouds.7 mph50%30.18 "HgN/A
9:50 am70 °FPassing clouds.6 mph53%30.21 "HgN/A
9:20 am68 °FPassing clouds.9 mph53%30.21 "HgN/A
8:50 am66 °FSunny.7 mph52%30.21 "Hg10 mi
8:20 am64 °FPassing clouds.7 mph60%30.21 "HgN/A
7:50 am63 °FPassing clouds.3 mph59%30.21 "HgN/A
7:20 am59 °FPassing clouds.6 mph68%30.21 "HgN/A
6:50 am57 °FPassing clouds.6 mph67%30.21 "HgN/A
6:20 am55 °FSunny.6 mph72%30.21 "Hg10 mi
5:50 am55 °FPassing clouds.5 mph72%30.21 "HgN/A
5:20 am54 °FPassing clouds.5 mph77%30.21 "HgN/A
4:50 am55 °FClear.2 mph72%30.21 "Hg10 mi
4:20 am55 °FClear.2 mph72%30.21 "Hg10 mi
3:50 am57 °FClear.1 mph67%30.24 "Hg10 mi
3:20 am57 °FPassing clouds.6 mph67%30.24 "HgN/A
2:50 am57 °FClear.3 mph67%30.24 "Hg10 mi
2:20 am52 °FClear.1 mph82%30.24 "Hg10 mi
1:50 am50 °FClear.6 mph82%30.24 "Hg10 mi
1:20 am54 °FClear.2 mph77%30.24 "Hg10 mi
12:50 am52 °FClear.1 mph82%30.24 "Hg10 mi
12:20 am55 °FClear.5 mph72%30.24 "Hg10 mi
Weather by CustomWeather, © 2021

See weather overview